createdAt,value
2023-05-17T00:02:22.140Z,99.90
2023-05-17T00:04:50.114Z,99.90
2023-05-17T00:07:19.403Z,99.90
2023-05-17T00:09:47.415Z,99.90
2023-05-17T00:12:15.308Z,99.90
2023-05-17T00:14:43.348Z,99.90
2023-05-17T00:17:11.227Z,99.90
2023-05-17T00:19:39.152Z,99.90
2023-05-17T00:22:07.116Z,99.90
2023-05-17T00:24:36.408Z,99.90
2023-05-17T00:27:04.509Z,99.90
2023-05-17T00:29:32.435Z,99.90
2023-05-17T00:38:01.245Z,99.90
2023-05-17T00:40:30.606Z,99.90
2023-05-17T00:42:58.534Z,99.90
2023-05-17T00:45:26.987Z,99.90
2023-05-17T00:47:55.369Z,99.90
2023-05-17T00:50:23.742Z,99.90
2023-05-17T00:52:51.770Z,99.90
2023-05-17T00:55:20.440Z,99.90
2023-05-17T00:57:50.568Z,99.90
2023-05-17T01:00:18.603Z,99.90
2023-05-17T01:02:48.704Z,99.90
2023-05-17T01:05:17.013Z,99.90
2023-05-17T01:07:44.917Z,99.90
2023-05-17T01:10:13.740Z,99.90
2023-05-17T01:12:56.485Z,99.90
2023-05-17T01:15:29.031Z,99.90
2023-05-17T01:18:06.729Z,99.90
2023-05-17T01:20:38.816Z,99.90
2023-05-17T01:23:25.165Z,99.90
2023-05-17T01:26:08.620Z,99.90
2023-05-17T01:28:39.281Z,99.90
2023-05-17T01:31:09.780Z,99.90
2023-05-17T01:33:39.492Z,99.90
2023-05-17T01:36:09.712Z,99.90
2023-05-17T01:38:37.720Z,99.90
2023-05-17T01:41:11.271Z,99.90
2023-05-17T01:43:45.357Z,99.90
2023-05-17T01:46:17.221Z,99.90
2023-05-17T01:48:53.775Z,99.90
2023-05-17T01:51:24.914Z,99.90
2023-05-17T01:53:58.167Z,99.90
2023-05-17T01:56:34.637Z,99.90
2023-05-17T01:59:07.575Z,99.90
2023-05-17T02:01:37.562Z,99.90
2023-05-17T02:04:05.946Z,99.90
2023-05-17T02:06:34.182Z,99.90
2023-05-17T02:09:03.166Z,99.90
2023-05-17T02:11:32.264Z,99.90
2023-05-17T02:14:00.311Z,99.90
2023-05-17T02:16:29.648Z,99.90
2023-05-17T02:18:57.628Z,99.90
2023-05-17T02:21:25.740Z,99.90
2023-05-17T02:23:53.638Z,99.90
2023-05-17T02:26:21.628Z,99.90
2023-05-17T02:28:49.626Z,99.90
2023-05-17T02:31:19.867Z,99.90
2023-05-17T02:33:52.107Z,99.90
2023-05-17T02:36:20.150Z,99.90
2023-05-17T02:38:48.274Z,99.90
2023-05-17T02:41:16.229Z,99.90
2023-05-17T02:43:44.295Z,99.90
2023-05-17T02:46:12.264Z,99.90
2023-05-17T02:48:40.248Z,99.90
2023-05-17T02:51:09.662Z,99.90
2023-05-17T02:53:37.716Z,99.90
2023-05-17T02:56:06.418Z,99.90
2023-05-17T02:58:34.761Z,99.90
2023-05-17T03:01:02.769Z,99.90
2023-05-17T03:03:31.653Z,99.90
2023-05-17T03:06:02.133Z,99.90
2023-05-17T03:08:32.266Z,99.90
2023-05-17T03:11:02.000Z,99.90
2023-05-17T03:13:30.441Z,99.90
2023-05-17T03:15:59.356Z,99.90
2023-05-17T03:18:27.824Z,99.90
2023-05-17T03:20:55.880Z,99.90
2023-05-17T03:23:24.498Z,99.90
2023-05-17T03:26:01.616Z,99.90
2023-05-17T03:28:33.179Z,99.90
2023-05-17T03:31:01.864Z,99.90
2023-05-17T03:33:33.089Z,99.90
2023-05-17T03:36:01.653Z,99.90
2023-05-17T03:38:29.684Z,99.90
2023-05-17T03:40:58.034Z,99.90
2023-05-17T03:43:28.634Z,99.90
2023-05-17T03:45:57.914Z,99.90
2023-05-17T03:48:25.989Z,99.90
2023-05-17T03:50:54.626Z,99.90
2023-05-17T03:53:22.809Z,99.90
2023-05-17T03:55:50.937Z,99.90
2023-05-17T03:58:19.581Z,99.90
2023-05-17T04:00:48.931Z,99.90
2023-05-17T04:03:20.262Z,99.90
2023-05-17T04:05:48.872Z,99.90
2023-05-17T04:08:16.887Z,99.90
2023-05-17T04:10:45.001Z,99.90
2023-05-17T04:13:12.953Z,99.90
2023-05-17T04:15:41.034Z,99.90
2023-05-17T04:18:11.203Z,99.90
2023-05-17T04:20:40.270Z,99.90
2023-05-17T04:23:08.231Z,99.90
2023-05-17T04:25:37.650Z,99.90
2023-05-17T04:28:05.896Z,99.90
2023-05-17T04:30:34.367Z,99.90
2023-05-17T04:33:02.697Z,99.90
2023-05-17T04:35:32.066Z,99.90
2023-05-17T04:38:00.648Z,99.90
2023-05-17T04:40:28.731Z,99.90
2023-05-17T04:42:56.852Z,99.90
2023-05-17T04:45:25.138Z,99.90
2023-05-17T04:47:53.725Z,99.90
2023-05-17T04:50:22.720Z,99.90
2023-05-17T04:52:53.338Z,99.90
2023-05-17T04:55:21.285Z,99.90
2023-05-17T04:57:49.742Z,99.90
2023-05-17T05:00:18.918Z,99.90
2023-05-17T05:02:52.744Z,99.90
2023-05-17T05:05:21.647Z,99.90
2023-05-17T05:07:49.871Z,99.90
2023-05-17T05:10:20.335Z,99.90
2023-05-17T05:12:48.952Z,99.90
2023-05-17T05:15:17.473Z,99.90
2023-05-17T05:17:52.260Z,99.90
2023-05-17T05:20:21.385Z,99.90
2023-05-17T05:22:49.467Z,99.90
2023-05-17T05:25:20.554Z,99.90
2023-05-17T05:27:48.988Z,99.90
2023-05-17T05:30:22.303Z,99.90
2023-05-17T05:32:55.323Z,99.90
2023-05-17T05:35:29.318Z,99.90
2023-05-17T05:37:59.379Z,99.90
2023-05-17T05:40:29.418Z,99.90
2023-05-17T05:42:57.757Z,99.90
2023-05-17T05:45:25.715Z,99.90
2023-05-17T05:47:56.763Z,99.90
2023-05-17T05:50:25.424Z,99.90
2023-05-17T05:53:10.925Z,99.90
2023-05-17T05:55:49.537Z,99.90
2023-05-17T05:58:17.980Z,99.90
2023-05-17T06:00:46.971Z,99.90
2023-05-17T06:03:15.658Z,99.90
2023-05-17T06:05:45.420Z,99.90
2023-05-17T06:08:13.522Z,99.90
2023-05-17T06:10:41.530Z,99.90
2023-05-17T06:13:11.068Z,99.90
2023-05-17T06:15:39.263Z,99.90
2023-05-17T06:18:07.522Z,99.90
2023-05-17T06:20:35.442Z,99.90
2023-05-17T06:23:05.272Z,99.90
2023-05-17T06:25:33.358Z,99.90
2023-05-17T06:28:02.819Z,99.90
2023-05-17T06:30:32.552Z,99.90
2023-05-17T06:33:00.892Z,99.90
2023-05-17T06:35:31.343Z,99.90
2023-05-17T06:38:01.116Z,99.90
2023-05-17T06:40:29.085Z,99.90
2023-05-17T06:42:57.131Z,99.90
2023-05-17T06:45:27.017Z,99.90
2023-05-17T06:47:56.347Z,99.90
2023-05-17T06:50:27.124Z,99.90
2023-05-17T06:52:55.414Z,99.90
2023-05-17T06:55:23.466Z,99.90
2023-05-17T06:57:51.588Z,99.90
2023-05-17T07:00:21.345Z,99.90
2023-05-17T07:02:49.479Z,99.90
2023-05-17T07:05:19.254Z,99.90
2023-05-17T07:07:47.203Z,99.90
2023-05-17T07:10:15.330Z,99.90
2023-05-17T07:12:43.471Z,99.90
2023-05-17T07:15:12.380Z,99.90
2023-05-17T07:17:40.362Z,99.90
2023-05-17T07:20:09.734Z,99.90
2023-05-17T07:22:40.478Z,99.90
2023-05-17T07:25:09.786Z,99.90
2023-05-17T07:27:37.726Z,99.90
2023-05-17T07:30:07.231Z,99.90
2023-05-17T07:32:35.356Z,99.90
2023-05-17T07:35:03.597Z,99.90
2023-05-17T07:37:31.506Z,99.90
2023-05-17T07:40:00.842Z,99.90
2023-05-17T07:42:28.759Z,99.90
2023-05-17T07:44:56.696Z,99.90
2023-05-17T07:47:24.625Z,99.90
2023-05-17T07:49:52.638Z,99.90
2023-05-17T07:52:20.626Z,99.90
2023-05-17T07:54:48.572Z,99.90
2023-05-17T07:57:18.595Z,99.90
2023-05-17T07:59:46.474Z,99.90
2023-05-17T08:02:14.408Z,99.90
2023-05-17T08:04:42.706Z,99.90
2023-05-17T08:07:10.819Z,99.90
2023-05-17T08:09:40.156Z,99.90
2023-05-17T08:12:08.104Z,99.90
2023-05-17T08:14:37.438Z,99.90
2023-05-17T08:17:06.029Z,99.90
2023-05-17T08:19:34.442Z,99.90
2023-05-17T08:22:02.488Z,99.90
2023-05-17T08:24:30.377Z,99.90
2023-05-17T08:26:58.524Z,99.90
2023-05-17T08:29:26.476Z,99.90
2023-05-17T08:31:56.901Z,99.90
2023-05-17T08:34:25.265Z,99.90
2023-05-17T08:36:53.751Z,99.90
2023-05-17T08:39:22.087Z,99.90
2023-05-17T08:41:50.199Z,99.90
2023-05-17T08:44:18.338Z,99.90
2023-05-17T08:46:53.508Z,99.90
2023-05-17T08:49:25.638Z,99.90
2023-05-17T08:51:55.498Z,99.90
2023-05-17T08:54:23.527Z,99.90
2023-05-17T08:56:54.856Z,99.90
2023-05-17T08:59:23.877Z,99.90
2023-05-17T09:01:54.520Z,99.90
2023-05-17T09:04:26.062Z,99.90
2023-05-17T09:06:54.107Z,99.90
2023-05-17T09:09:22.324Z,99.90
2023-05-17T09:11:50.359Z,99.90
2023-05-17T09:14:18.311Z,99.90
2023-05-17T09:16:46.413Z,99.90
2023-05-17T09:19:18.150Z,99.90
2023-05-17T09:21:50.950Z,99.90
2023-05-17T09:24:28.059Z,99.90
2023-05-17T09:27:02.682Z,99.90
2023-05-17T09:29:33.330Z,99.90
2023-05-17T09:32:13.946Z,99.90
2023-05-17T09:34:42.873Z,99.90
2023-05-17T09:37:16.677Z,99.90
2023-05-17T09:39:46.053Z,99.70
2023-05-17T09:42:14.481Z,99.10
2023-05-17T09:44:51.038Z,99.70
2023-05-17T09:47:29.947Z,99.70
2023-05-17T09:50:00.514Z,99.40
2023-05-17T09:52:31.707Z,99.50
2023-05-17T09:55:01.222Z,99.90
2023-05-17T09:57:37.677Z,99.40
2023-05-17T10:00:09.533Z,99.40
2023-05-17T10:02:39.491Z,99.00
2023-05-17T10:05:11.844Z,98.60
2023-05-17T10:07:42.805Z,98.50
2023-05-17T10:10:12.176Z,98.30
2023-05-17T10:12:41.762Z,97.70
2023-05-17T10:15:11.741Z,97.50
2023-05-17T10:17:44.602Z,97.70
2023-05-17T10:20:15.224Z,97.50
2023-05-17T10:22:44.860Z,97.60
2023-05-17T10:25:13.638Z,98.00
2023-05-17T10:27:41.923Z,98.00
2023-05-17T10:30:11.433Z,98.20
2023-05-17T10:32:39.810Z,98.20
2023-05-17T10:35:11.984Z,98.20
2023-05-17T10:37:41.461Z,97.90
2023-05-17T10:40:14.261Z,98.10
2023-05-17T10:42:46.344Z,98.60
2023-05-17T10:45:14.701Z,98.60
2023-05-17T10:47:43.645Z,98.40
2023-05-17T10:50:14.946Z,98.20
2023-05-17T10:52:47.945Z,97.80
2023-05-17T10:55:21.886Z,97.80
2023-05-17T10:58:19.614Z,97.50
2023-05-17T11:00:49.555Z,96.60
2023-05-17T11:03:22.560Z,96.00
2023-05-17T11:06:22.737Z,95.90
2023-05-17T11:09:08.775Z,96.00
2023-05-17T11:11:38.126Z,95.80
2023-05-17T11:14:06.537Z,95.20
2023-05-17T11:16:37.753Z,95.50
2023-05-17T11:19:09.953Z,96.30
2023-05-17T11:21:46.941Z,96.50
2023-05-17T11:24:22.180Z,97.00
2023-05-17T11:26:51.817Z,97.70
2023-05-17T11:29:19.745Z,98.00
2023-05-17T11:31:52.842Z,97.80
2023-05-17T11:34:23.286Z,98.50
2023-05-17T11:36:52.939Z,98.50
2023-05-17T11:39:22.233Z,99.10
2023-05-17T11:41:52.903Z,98.70
2023-05-17T11:44:30.705Z,98.20
2023-05-17T11:47:03.721Z,98.40
2023-05-17T11:49:36.422Z,98.00
2023-05-17T11:52:06.421Z,98.10
2023-05-17T11:54:34.678Z,97.50
2023-05-17T11:57:05.585Z,97.40
2023-05-17T11:59:39.795Z,98.10
2023-05-17T12:02:08.638Z,98.20
2023-05-17T12:04:38.622Z,98.20
2023-05-17T12:07:10.440Z,97.60
2023-05-17T12:09:39.364Z,97.80
2023-05-17T12:12:09.674Z,97.00
2023-05-17T12:14:37.851Z,97.10
2023-05-17T12:17:09.382Z,97.60
2023-05-17T12:19:37.521Z,97.40
2023-05-17T12:22:12.227Z,97.00
2023-05-17T12:24:41.155Z,97.00
2023-05-17T12:27:11.394Z,97.40
2023-05-17T12:29:39.927Z,97.10
2023-05-17T12:32:10.432Z,96.90
2023-05-17T12:34:38.776Z,97.20
2023-05-17T12:37:10.482Z,97.10
2023-05-17T12:39:39.073Z,97.60
2023-05-17T12:42:08.248Z,98.00
2023-05-17T12:44:37.568Z,97.60
2023-05-17T12:47:05.656Z,97.50
2023-05-17T12:49:39.427Z,97.00
2023-05-17T12:52:07.903Z,97.00
2023-05-17T12:54:36.326Z,97.10
2023-05-17T12:57:15.854Z,96.90
2023-05-17T12:59:54.335Z,96.90
2023-05-17T13:02:23.672Z,96.40
2023-05-17T13:04:51.944Z,96.20
2023-05-17T13:07:24.689Z,96.80
2023-05-17T13:09:52.791Z,96.70
2023-05-17T13:12:23.312Z,96.60
2023-05-17T13:14:54.687Z,96.00
2023-05-17T13:17:27.247Z,96.50
2023-05-17T13:19:57.804Z,96.40
2023-05-17T13:22:26.873Z,96.60
2023-05-17T13:24:55.457Z,96.70
2023-05-17T13:27:23.768Z,96.50
2023-05-17T13:29:53.161Z,96.00
2023-05-17T13:32:22.745Z,95.90
2023-05-17T13:34:51.306Z,95.40
2023-05-17T13:37:19.225Z,95.20
2023-05-17T13:39:47.174Z,94.70
2023-05-17T13:42:15.662Z,95.20
2023-05-17T13:44:43.835Z,94.60
2023-05-17T13:47:13.269Z,94.00
2023-05-17T13:49:41.439Z,93.70
2023-05-17T13:52:09.883Z,93.10
2023-05-17T13:54:38.143Z,93.30
2023-05-17T13:57:07.002Z,93.30
2023-05-17T13:59:35.078Z,93.50
2023-05-17T14:02:04.367Z,94.00
2023-05-17T14:04:34.917Z,94.40
2023-05-17T14:07:03.328Z,94.90
2023-05-17T14:09:33.788Z,94.50
2023-05-17T14:12:02.141Z,94.50
2023-05-17T14:14:30.738Z,94.70
2023-05-17T14:16:58.901Z,95.00
2023-05-17T14:19:26.934Z,94.90
2023-05-17T14:21:56.354Z,95.30
2023-05-17T14:24:24.400Z,94.90
2023-05-17T14:26:52.405Z,95.50
2023-05-17T14:29:20.510Z,95.90
2023-05-17T14:31:48.409Z,95.90
2023-05-17T14:34:16.459Z,96.10
2023-05-17T14:36:44.617Z,96.30
2023-05-17T14:39:14.061Z,96.40
2023-05-17T14:41:44.172Z,96.40
2023-05-17T14:44:12.918Z,96.60
2023-05-17T14:46:41.114Z,96.80
2023-05-17T14:49:09.254Z,97.10
2023-05-17T14:51:37.282Z,96.60
2023-05-17T14:54:05.908Z,96.40
2023-05-17T14:56:35.316Z,96.60
2023-05-17T14:59:03.410Z,96.60
2023-05-17T15:01:31.281Z,96.80
2023-05-17T15:03:59.338Z,96.80
2023-05-17T15:06:27.376Z,97.60
2023-05-17T15:08:55.436Z,98.60
2023-05-17T15:11:23.617Z,99.00
2023-05-17T15:13:53.076Z,98.80
2023-05-17T15:16:21.075Z,99.10
2023-05-17T15:18:49.371Z,98.90
2023-05-17T15:21:19.069Z,99.10
2023-05-17T15:23:48.485Z,99.40
2023-05-17T15:26:16.879Z,99.70
2023-05-17T15:28:45.039Z,99.50
2023-05-17T15:31:14.424Z,99.20
2023-05-17T15:33:43.342Z,99.20
2023-05-17T15:36:13.271Z,98.50
2023-05-17T15:38:41.537Z,98.30
2023-05-17T15:41:12.291Z,98.20
2023-05-17T15:43:43.725Z,97.70
2023-05-17T15:46:11.836Z,96.80
2023-05-17T15:48:41.311Z,96.00
2023-05-17T15:51:10.061Z,95.70
2023-05-17T15:53:38.416Z,95.70
2023-05-17T15:56:07.013Z,95.10
2023-05-17T15:58:35.591Z,94.80
2023-05-17T16:01:04.971Z,93.60
2023-05-17T16:03:33.809Z,91.80
2023-05-17T16:06:04.259Z,90.70
2023-05-17T16:08:32.623Z,90.00
2023-05-17T16:11:02.571Z,88.20
2023-05-17T16:13:31.105Z,86.40
2023-05-17T16:16:00.141Z,83.80
2023-05-17T16:18:28.773Z,82.60
2023-05-17T16:21:01.066Z,82.50
2023-05-17T16:23:30.585Z,84.20
2023-05-17T16:25:58.541Z,84.30
2023-05-17T16:28:26.695Z,84.70
2023-05-17T16:30:54.819Z,86.00
2023-05-17T16:33:23.068Z,86.60
2023-05-17T16:35:51.487Z,87.90
2023-05-17T16:38:19.642Z,88.90
2023-05-17T16:40:49.072Z,89.20
2023-05-17T16:43:17.043Z,90.00
2023-05-17T16:45:45.704Z,90.20
2023-05-17T16:48:14.805Z,90.20
2023-05-17T16:50:43.284Z,90.70
2023-05-17T16:53:11.983Z,88.80
2023-05-17T16:55:39.925Z,87.00
2023-05-17T16:58:09.599Z,87.10
2023-05-17T17:00:37.598Z,86.40
2023-05-17T17:03:08.457Z,85.70
2023-05-17T17:05:37.479Z,85.00
2023-05-17T17:08:05.564Z,82.70
2023-05-17T17:10:34.755Z,81.70
2023-05-17T17:13:03.470Z,79.70
2023-05-17T17:15:32.910Z,79.30
2023-05-17T17:18:01.020Z,77.40
2023-05-17T17:20:29.265Z,77.00
2023-05-17T17:22:57.464Z,76.00
2023-05-17T17:25:25.842Z,75.30
2023-05-17T17:27:53.920Z,75.30
2023-05-17T17:30:22.128Z,74.10
2023-05-17T17:32:51.681Z,74.10
2023-05-17T17:35:19.970Z,73.20
2023-05-17T17:37:47.930Z,73.60
2023-05-17T17:40:15.929Z,73.40
2023-05-17T17:42:43.949Z,73.10
2023-05-17T17:45:12.145Z,72.60
2023-05-17T17:47:40.108Z,73.50
2023-05-17T17:50:10.445Z,73.60
2023-05-17T17:52:38.417Z,75.10
2023-05-17T17:55:07.681Z,76.80
2023-05-17T17:57:35.648Z,77.70
2023-05-17T18:00:04.206Z,80.00
2023-05-17T18:02:33.231Z,81.90
2023-05-17T18:05:01.337Z,83.50
2023-05-17T18:07:30.947Z,84.80
2023-05-17T18:09:58.892Z,86.20
2023-05-17T18:12:27.661Z,88.00
2023-05-17T18:14:55.969Z,89.30
2023-05-17T18:17:24.096Z,90.10
2023-05-17T18:19:53.529Z,91.00
2023-05-17T18:22:21.523Z,91.50
2023-05-17T18:24:52.549Z,91.60
2023-05-17T18:27:20.528Z,91.30
2023-05-17T18:29:48.493Z,91.60
2023-05-17T18:32:16.508Z,92.10
2023-05-17T18:34:44.645Z,92.70
2023-05-17T18:37:12.604Z,93.40
2023-05-17T18:39:40.737Z,93.30
2023-05-17T18:42:10.042Z,93.40
2023-05-17T18:44:38.003Z,93.70
2023-05-17T18:47:06.628Z,94.10
2023-05-17T18:49:36.365Z,94.50
2023-05-17T18:52:04.350Z,94.50
2023-05-17T18:54:32.336Z,94.80
2023-05-17T18:57:00.341Z,95.30
2023-05-17T18:59:29.544Z,95.90
2023-05-17T19:01:57.482Z,97.60
2023-05-17T19:04:25.655Z,98.90
2023-05-17T19:06:53.956Z,99.90
2023-05-17T19:09:21.891Z,99.90
2023-05-17T19:11:49.846Z,99.90
2023-05-17T19:14:17.851Z,99.90
2023-05-17T19:16:47.156Z,99.90
2023-05-17T19:19:15.256Z,99.90
2023-05-17T19:21:43.375Z,99.90
2023-05-17T19:24:13.370Z,99.90
2023-05-17T19:26:42.018Z,99.90
2023-05-17T19:29:10.287Z,99.90
2023-05-17T19:31:38.492Z,99.90
2023-05-17T19:34:08.221Z,99.90
2023-05-17T19:36:36.323Z,99.90
2023-05-17T19:39:04.276Z,99.90
2023-05-17T19:41:32.249Z,99.90
2023-05-17T19:44:00.183Z,99.90
2023-05-17T19:46:28.338Z,99.90
2023-05-17T19:48:57.240Z,99.90
2023-05-17T19:51:26.551Z,99.90
2023-05-17T19:53:54.643Z,99.90
2023-05-17T19:56:23.920Z,99.90
2023-05-17T19:58:52.466Z,99.90
2023-05-17T20:01:21.391Z,99.90
2023-05-17T20:03:58.460Z,99.90
2023-05-17T20:06:27.985Z,99.90
2023-05-17T20:08:55.919Z,99.90
2023-05-17T20:11:23.976Z,99.90
2023-05-17T20:13:51.861Z,99.90
2023-05-17T20:16:20.338Z,99.90
2023-05-17T20:18:54.793Z,99.90
2023-05-17T20:21:26.189Z,99.90
2023-05-17T20:24:06.797Z,99.90
2023-05-17T20:26:36.836Z,99.90
2023-05-17T20:29:08.916Z,99.90
2023-05-17T20:31:40.302Z,99.90
2023-05-17T20:34:08.347Z,99.90
2023-05-17T20:36:37.790Z,99.90
2023-05-17T20:39:07.328Z,99.90
2023-05-17T20:41:38.237Z,99.90
2023-05-17T20:44:06.607Z,99.90
2023-05-17T20:46:36.205Z,99.90
2023-05-17T20:49:11.437Z,99.90
2023-05-17T20:51:43.380Z,99.90
2023-05-17T20:54:12.954Z,99.90
2023-05-17T20:56:45.145Z,99.90
2023-05-17T20:59:13.162Z,99.90
2023-05-17T21:01:41.969Z,99.90
2023-05-17T21:04:11.258Z,99.90
2023-05-17T21:06:39.220Z,99.90
2023-05-17T21:09:07.101Z,99.90
2023-05-17T21:11:36.492Z,99.90
2023-05-17T21:14:04.497Z,99.90
2023-05-17T21:16:32.561Z,99.90
2023-05-17T21:19:00.647Z,99.90
2023-05-17T21:21:28.672Z,99.90
2023-05-17T21:23:56.622Z,99.90
2023-05-17T21:26:24.585Z,99.90
2023-05-17T21:28:53.852Z,99.90
2023-05-17T21:31:21.942Z,99.90
2023-05-17T21:33:50.043Z,99.90
2023-05-17T21:36:17.967Z,99.90
2023-05-17T21:38:46.194Z,99.90
2023-05-17T21:41:14.122Z,99.90
2023-05-17T21:43:42.223Z,99.90
2023-05-17T21:46:11.641Z,99.90
2023-05-17T21:48:39.658Z,99.90
2023-05-17T21:51:07.698Z,99.90
2023-05-17T21:53:35.571Z,99.90
2023-05-17T21:56:03.556Z,99.90
2023-05-17T21:58:32.446Z,99.90
2023-05-17T22:01:00.526Z,99.90
2023-05-17T22:03:29.994Z,99.90
2023-05-17T22:05:58.126Z,99.90
2023-05-17T22:08:26.107Z,99.90
2023-05-17T22:10:55.607Z,99.90
2023-05-17T22:13:26.228Z,99.90
2023-05-17T22:15:57.383Z,99.90
2023-05-17T22:18:26.703Z,99.90
2023-05-17T22:20:59.435Z,99.90
2023-05-17T22:23:27.559Z,99.90
2023-05-17T22:25:57.065Z,99.90
2023-05-17T22:28:24.975Z,99.90
2023-05-17T22:30:54.066Z,99.90
2023-05-17T22:33:23.525Z,99.90
2023-05-17T22:35:53.664Z,99.90
2023-05-17T22:38:24.215Z,99.90
2023-05-17T22:40:52.181Z,99.90
2023-05-17T22:43:21.424Z,99.90
2023-05-17T22:45:50.721Z,99.90
2023-05-17T22:48:19.926Z,99.90
2023-05-17T22:50:48.063Z,99.90
2023-05-17T22:53:17.450Z,99.90
2023-05-17T22:55:48.936Z,99.90
2023-05-17T22:58:17.178Z,99.90
2023-05-17T23:00:45.196Z,99.90
2023-05-17T23:03:13.378Z,99.90
2023-05-17T23:05:41.381Z,99.90
2023-05-17T23:08:09.800Z,99.90
2023-05-17T23:10:38.103Z,99.90
2023-05-17T23:13:07.459Z,99.90
2023-05-17T23:15:37.207Z,99.90
2023-05-17T23:18:05.629Z,99.90
2023-05-17T23:20:34.986Z,99.90
2023-05-17T23:23:03.037Z,99.90
2023-05-17T23:25:31.527Z,99.90
2023-05-17T23:27:59.723Z,99.90
2023-05-17T23:30:29.591Z,99.90
2023-05-17T23:32:57.800Z,99.90
2023-05-17T23:35:25.988Z,99.90
2023-05-17T23:37:53.934Z,99.90
2023-05-17T23:40:22.101Z,99.90
2023-05-17T23:42:50.026Z,99.90
2023-05-17T23:45:18.055Z,99.90
2023-05-17T23:47:47.525Z,99.90
2023-05-17T23:50:15.672Z,99.90
2023-05-17T23:52:43.838Z,99.90
2023-05-17T23:55:12.115Z,99.90
2023-05-17T23:57:41.307Z,99.90
